createdAt,value
2022-08-25T00:02:10.007Z,1.90
2022-08-25T00:05:13.413Z,2.00
2022-08-25T00:08:16.367Z,1.80
2022-08-25T00:11:18.950Z,1.90
2022-08-25T00:14:21.723Z,2.05
2022-08-25T00:17:24.989Z,2.20
2022-08-25T00:20:27.482Z,2.10
2022-08-25T00:23:29.940Z,2.25
2022-08-25T00:26:32.745Z,2.15
2022-08-25T00:29:35.193Z,2.17
2022-08-25T00:32:38.179Z,2.20
2022-08-25T00:35:40.994Z,2.20
2022-08-25T00:38:44.421Z,1.80
2022-08-25T00:41:47.079Z,1.92
2022-08-25T00:44:50.090Z,2.13
2022-08-25T00:47:53.046Z,2.20
2022-08-25T00:50:56.332Z,2.08
2022-08-25T00:53:58.476Z,2.33
2022-08-25T00:57:00.694Z,2.08
2022-08-25T01:00:03.746Z,2.10
2022-08-25T01:03:07.121Z,2.08
2022-08-25T01:06:09.986Z,2.15
2022-08-25T01:09:12.618Z,2.28
2022-08-25T01:12:15.543Z,2.10
2022-08-25T01:15:18.680Z,2.30
2022-08-25T01:18:21.843Z,2.10
2022-08-25T01:21:25.008Z,2.22
2022-08-25T01:24:27.928Z,2.35
2022-08-25T01:27:30.920Z,2.38
2022-08-25T01:30:33.672Z,2.50
2022-08-25T01:33:36.641Z,2.20
2022-08-25T01:36:39.872Z,2.22
2022-08-25T01:39:42.802Z,2.20
2022-08-25T01:42:45.273Z,2.22
2022-08-25T01:45:47.754Z,2.10
2022-08-25T01:48:50.656Z,2.13
2022-08-25T01:51:53.947Z,2.13
2022-08-25T01:54:57.087Z,2.40
2022-08-25T01:58:00.340Z,2.50
2022-08-25T02:01:03.220Z,2.20
2022-08-25T02:04:06.307Z,2.40
2022-08-25T02:07:10.048Z,2.60
2022-08-25T02:10:12.473Z,2.65
2022-08-25T02:13:15.232Z,2.60
2022-08-25T02:16:18.543Z,2.35
2022-08-25T02:19:21.314Z,2.42
2022-08-25T02:22:24.450Z,2.35
2022-08-25T02:25:27.422Z,2.70
2022-08-25T02:28:30.265Z,2.05
2022-08-25T02:31:32.481Z,2.72
2022-08-25T02:34:35.138Z,2.55
2022-08-25T02:37:37.732Z,2.40
2022-08-25T02:40:40.503Z,2.42
2022-08-25T02:43:42.904Z,2.50
2022-08-25T02:46:45.565Z,2.65
2022-08-25T02:49:48.545Z,2.50
2022-08-25T02:52:51.740Z,2.60
2022-08-25T02:55:54.258Z,2.50
2022-08-25T02:58:57.122Z,2.50
2022-08-25T03:02:00.081Z,2.53
2022-08-25T03:05:03.251Z,2.45
2022-08-25T03:08:06.912Z,2.78
2022-08-25T03:11:09.941Z,3.88
2022-08-25T03:14:12.804Z,3.30
2022-08-25T03:17:15.893Z,3.35
2022-08-25T03:20:19.781Z,3.45
2022-08-25T03:23:23.777Z,3.72
2022-08-25T03:26:27.076Z,3.70
2022-08-25T03:29:29.891Z,3.17
2022-08-25T03:32:32.859Z,3.28
2022-08-25T03:35:35.275Z,3.92
2022-08-25T03:38:37.922Z,7.72
2022-08-25T03:41:40.887Z,7.30
2022-08-25T03:44:44.027Z,18.77
2022-08-25T03:47:47.358Z,17.98
2022-08-25T03:50:50.637Z,14.38
2022-08-25T03:53:54.238Z,13.30
2022-08-25T03:56:56.890Z,19.35
2022-08-25T03:59:59.842Z,17.25
2022-08-25T04:03:02.628Z,15.35
2022-08-25T04:06:05.533Z,15.82
2022-08-25T04:09:08.267Z,19.40
2022-08-25T04:12:11.223Z,17.63
2022-08-25T04:15:14.987Z,17.27
2022-08-25T04:18:17.203Z,16.65
2022-08-25T04:21:20.150Z,23.17
2022-08-25T04:24:23.455Z,47.65
2022-08-25T04:27:26.268Z,41.50
2022-08-25T04:30:29.211Z,42.75
2022-08-25T04:33:32.446Z,41.45
2022-08-25T04:36:35.544Z,42.72
2022-08-25T04:39:39.083Z,41.22
2022-08-25T04:42:42.947Z,41.95
2022-08-25T04:45:45.973Z,41.08
2022-08-25T04:48:49.200Z,41.28
2022-08-25T04:51:52.451Z,41.17
2022-08-25T04:54:55.675Z,51.38
2022-08-25T04:57:58.425Z,46.03
2022-08-25T05:01:01.310Z,40.42
2022-08-25T05:04:03.597Z,38.25
2022-08-25T05:07:05.884Z,38.97
2022-08-25T05:10:08.255Z,36.67
2022-08-25T05:13:11.191Z,37.25
2022-08-25T05:16:14.116Z,35.92
2022-08-25T05:19:17.114Z,35.05
2022-08-25T05:22:19.698Z,32.03
2022-08-25T05:25:23.096Z,40.25
2022-08-25T05:28:25.944Z,47.03
2022-08-25T05:31:29.095Z,42.58
2022-08-25T05:34:31.993Z,38.80
2022-08-25T05:37:34.196Z,36.63
2022-08-25T05:40:36.846Z,37.25
2022-08-25T05:43:39.484Z,34.88
2022-08-25T05:46:42.386Z,34.63
2022-08-25T05:49:44.559Z,21.02
2022-08-25T05:52:47.480Z,6.28
2022-08-25T05:55:50.019Z,3.97
2022-08-25T05:58:52.610Z,3.30
2022-08-25T06:01:55.557Z,2.63
2022-08-25T06:04:58.234Z,2.85
2022-08-25T06:08:01.258Z,2.80
2022-08-25T06:11:03.650Z,3.00
2022-08-25T06:14:06.615Z,2.67
2022-08-25T06:17:09.337Z,2.65
2022-08-25T06:20:12.257Z,3.00
2022-08-25T06:23:14.618Z,2.47
2022-08-25T06:26:21.289Z,3.05
2022-08-25T06:29:24.558Z,2.80
2022-08-25T06:32:27.702Z,2.90
2022-08-25T06:35:30.935Z,2.97
2022-08-25T06:38:34.923Z,3.00
2022-08-25T06:41:37.734Z,2.90
2022-08-25T06:44:42.029Z,2.90
2022-08-25T06:47:45.597Z,2.80
2022-08-25T06:50:48.006Z,3.35
2022-08-25T06:53:50.585Z,2.83
2022-08-25T06:56:52.732Z,3.05
2022-08-25T06:59:55.403Z,3.08
2022-08-25T07:02:59.765Z,2.85
2022-08-25T07:06:02.733Z,2.97
2022-08-25T07:09:05.174Z,2.88
2022-08-25T07:12:08.389Z,3.22
2022-08-25T07:15:19.865Z,3.13
2022-08-25T07:18:22.632Z,3.40
2022-08-25T07:21:27.882Z,3.33
2022-08-25T07:24:33.696Z,3.17
2022-08-25T07:27:36.211Z,3.10
2022-08-25T07:30:39.215Z,3.30
2022-08-25T07:33:42.582Z,3.05
2022-08-25T07:36:46.497Z,3.45
2022-08-25T07:39:49.344Z,3.22
2022-08-25T07:42:52.200Z,3.25
2022-08-25T07:45:55.582Z,3.38
2022-08-25T07:48:58.796Z,3.20
2022-08-25T07:52:05.328Z,2.80
2022-08-25T07:55:10.911Z,3.00
2022-08-25T07:58:14.208Z,2.63
2022-08-25T08:01:16.773Z,2.80
2022-08-25T08:04:19.699Z,2.88
2022-08-25T08:07:22.926Z,2.58
2022-08-25T08:10:48.035Z,2.70
2022-08-25T08:13:48.437Z,2.70
2022-08-25T08:16:53.831Z,2.90
2022-08-25T08:19:57.519Z,3.03
2022-08-25T08:23:00.569Z,2.78
2022-08-25T08:26:04.797Z,2.95
2022-08-25T08:29:07.841Z,3.20
2022-08-25T08:32:10.323Z,3.00
2022-08-25T08:35:12.900Z,3.03
2022-08-25T08:38:22.150Z,3.08
2022-08-25T08:41:29.333Z,2.90
2022-08-25T08:44:31.509Z,2.88
2022-08-25T08:47:33.746Z,2.80
2022-08-25T08:50:38.123Z,3.15
2022-08-25T08:53:41.113Z,3.00
2022-08-25T08:56:45.432Z,3.08
2022-08-25T08:59:50.933Z,2.90
2022-08-25T09:02:53.956Z,2.90
2022-08-25T09:05:56.997Z,2.60
2022-08-25T09:08:59.886Z,2.85
2022-08-25T09:12:03.261Z,2.50
2022-08-25T09:15:12.853Z,2.47
2022-08-25T09:18:17.118Z,3.42
2022-08-25T09:21:19.336Z,2.80
2022-08-25T09:24:22.078Z,2.50
2022-08-25T09:27:25.048Z,2.55
2022-08-25T09:30:27.226Z,2.30
2022-08-25T09:33:30.056Z,2.60
2022-08-25T09:36:37.848Z,2.17
2022-08-25T09:39:40.911Z,2.33
2022-08-25T09:42:43.873Z,2.63
2022-08-25T09:45:46.697Z,2.17
2022-08-25T09:48:56.033Z,2.40
2022-08-25T09:51:59.963Z,2.08
2022-08-25T09:55:02.278Z,1.90
2022-08-25T09:58:09.486Z,2.17
2022-08-25T10:04:18.900Z,2.22
2022-08-25T10:07:23.038Z,2.00
2022-08-25T10:10:25.935Z,1.83
2022-08-25T10:13:28.959Z,2.05
2022-08-25T10:16:36.203Z,2.10
2022-08-25T10:19:38.889Z,2.13
2022-08-25T10:22:41.425Z,2.05
2022-08-25T10:25:59.404Z,1.85
2022-08-25T10:29:04.998Z,1.90
2022-08-25T10:32:12.040Z,2.03
2022-08-25T10:35:15.058Z,1.83
2022-08-25T10:38:21.651Z,1.70
2022-08-25T10:41:24.354Z,1.80
2022-08-25T10:44:27.228Z,1.98
2022-08-25T10:47:30.493Z,1.90
2022-08-25T10:50:33.350Z,1.85
2022-08-25T10:53:36.704Z,1.90
2022-08-25T10:56:40.734Z,1.80
2022-08-25T10:59:43.736Z,1.70
2022-08-25T11:02:46.207Z,1.70
2022-08-25T11:05:48.610Z,1.60
2022-08-25T11:08:51.377Z,1.80
2022-08-25T11:11:54.052Z,2.05
2022-08-25T11:14:56.301Z,16.45
2022-08-25T11:17:59.134Z,16.08
2022-08-25T11:21:05.099Z,12.10
2022-08-25T11:24:08.768Z,10.52
2022-08-25T11:27:13.791Z,8.45
2022-08-25T11:30:16.662Z,6.75
2022-08-25T11:33:21.644Z,5.25
2022-08-25T11:36:29.654Z,4.57
2022-08-25T11:39:34.668Z,4.75
2022-08-25T11:42:37.848Z,4.10
2022-08-25T11:45:41.067Z,3.60
2022-08-25T11:48:43.654Z,3.78
2022-08-25T11:51:47.324Z,2.72
2022-08-25T11:54:51.310Z,2.85
2022-08-25T11:57:54.035Z,2.70
2022-08-25T12:00:56.586Z,3.00
2022-08-25T12:03:59.463Z,2.60
2022-08-25T12:07:02.098Z,2.40
2022-08-25T12:10:05.727Z,2.80
2022-08-25T12:13:10.537Z,2.55
2022-08-25T12:16:13.981Z,2.80
2022-08-25T12:19:17.273Z,2.00
2022-08-25T12:22:20.436Z,2.35
2022-08-25T12:25:24.229Z,2.60
2022-08-25T12:28:27.415Z,2.30
2022-08-25T12:31:29.865Z,2.47
2022-08-25T12:34:35.456Z,2.30
2022-08-25T12:37:39.616Z,2.33
2022-08-25T12:40:42.292Z,1.98
2022-08-25T12:43:45.447Z,2.00
2022-08-25T12:46:49.183Z,1.92
2022-08-25T12:49:52.040Z,4.18
2022-08-25T12:52:55.061Z,4.13
2022-08-25T12:55:58.388Z,4.20
2022-08-25T12:59:01.436Z,3.90
2022-08-25T13:02:06.991Z,3.22
2022-08-25T13:05:10.212Z,2.22
2022-08-25T13:08:15.143Z,2.22
2022-08-25T13:11:20.430Z,2.00
2022-08-25T13:14:23.731Z,2.13
2022-08-25T13:17:27.996Z,1.92
2022-08-25T13:20:31.964Z,2.10
2022-08-25T13:23:38.145Z,2.10
2022-08-25T13:26:48.632Z,2.00
2022-08-25T13:29:51.559Z,1.92
2022-08-25T13:32:56.352Z,2.10
2022-08-25T13:35:59.975Z,2.42
2022-08-25T13:39:07.324Z,1.70
2022-08-25T13:42:11.159Z,1.90
2022-08-25T13:45:14.555Z,2.20
2022-08-25T13:48:22.432Z,1.88
2022-08-25T13:51:31.445Z,2.00
2022-08-25T13:54:35.260Z,2.03
2022-08-25T13:57:40.875Z,1.80
2022-08-25T14:00:45.311Z,1.92
2022-08-25T14:03:47.299Z,1.83
2022-08-25T14:06:50.207Z,1.90
2022-08-25T14:09:53.049Z,1.90
2022-08-25T14:12:55.328Z,1.77
2022-08-25T14:15:57.933Z,1.70
2022-08-25T14:19:00.635Z,1.95
2022-08-25T14:22:04.216Z,1.90
2022-08-25T14:25:06.850Z,1.77
2022-08-25T14:28:10.852Z,1.70
2022-08-25T14:31:16.025Z,1.92
2022-08-25T14:34:20.118Z,1.95
2022-08-25T14:37:25.673Z,2.20
2022-08-25T14:40:32.143Z,1.77
2022-08-25T14:43:36.821Z,1.98
2022-08-25T14:46:40.960Z,1.70
2022-08-25T14:49:44.482Z,2.10
2022-08-25T14:52:46.959Z,2.00
2022-08-25T14:55:49.195Z,1.65
2022-08-25T14:58:54.445Z,1.83
2022-08-25T15:01:57.809Z,2.00
2022-08-25T15:05:01.361Z,1.67
2022-08-25T15:08:04.628Z,1.73
2022-08-25T15:11:10.526Z,1.83
2022-08-25T15:14:14.405Z,1.70
2022-08-25T15:17:17.387Z,1.80
2022-08-25T15:20:20.246Z,1.80
2022-08-25T15:23:23.631Z,1.95
2022-08-25T15:26:27.059Z,1.63
2022-08-25T15:29:29.510Z,2.00
2022-08-25T15:32:32.187Z,2.00
2022-08-25T15:35:35.233Z,1.75
2022-08-25T15:38:38.099Z,2.17
2022-08-25T15:41:42.754Z,1.70
2022-08-25T15:44:53.376Z,1.70
2022-08-25T15:47:56.160Z,1.90
2022-08-25T15:50:58.697Z,1.58
2022-08-25T15:54:01.544Z,1.85
2022-08-25T15:57:03.917Z,1.88
2022-08-25T16:00:11.718Z,1.65
2022-08-25T16:03:16.170Z,1.88
2022-08-25T16:06:18.792Z,1.80
2022-08-25T16:09:23.091Z,1.70
2022-08-25T16:12:26.372Z,2.13
2022-08-25T16:15:30.919Z,2.45
2022-08-25T16:18:33.474Z,2.30
2022-08-25T16:21:36.358Z,2.08
2022-08-25T16:24:44.507Z,2.00
2022-08-25T16:27:47.678Z,1.80
2022-08-25T16:30:52.986Z,1.90
2022-08-25T16:33:58.184Z,1.90
2022-08-25T16:37:00.983Z,1.98
2022-08-25T16:40:03.726Z,2.10
2022-08-25T16:43:06.893Z,1.90
2022-08-25T16:46:09.179Z,1.90
2022-08-25T16:49:13.315Z,2.20
2022-08-25T16:52:16.486Z,2.10
2022-08-25T16:55:20.345Z,2.17
2022-08-25T16:58:25.464Z,2.17
2022-08-25T17:01:29.213Z,2.05
2022-08-25T17:04:32.144Z,2.08
2022-08-25T17:07:35.557Z,2.47
2022-08-25T17:10:38.788Z,2.30
2022-08-25T17:13:44.429Z,2.15
2022-08-25T17:16:47.631Z,1.90
2022-08-25T17:19:53.412Z,1.80
2022-08-25T17:26:00.003Z,2.10
2022-08-25T17:29:04.704Z,1.60
2022-08-25T17:32:09.376Z,1.80
2022-08-25T17:35:14.143Z,1.90
2022-08-25T17:38:16.862Z,1.98
2022-08-25T17:41:19.987Z,2.00
2022-08-25T17:44:23.437Z,2.00
2022-08-25T17:47:25.722Z,1.92
2022-08-25T17:50:28.717Z,2.22
2022-08-25T17:53:31.549Z,2.20
2022-08-25T17:56:34.462Z,2.25
2022-08-25T17:59:37.230Z,2.80
2022-08-25T18:02:40.119Z,2.55
2022-08-25T18:05:43.142Z,1.95
2022-08-25T18:08:51.294Z,2.47
2022-08-25T18:12:00.005Z,2.40
2022-08-25T18:15:02.805Z,2.05
2022-08-25T18:18:05.275Z,2.30
2022-08-25T18:21:08.729Z,2.80
2022-08-25T18:24:13.442Z,2.58
2022-08-25T18:27:16.532Z,2.67
2022-08-25T18:30:27.596Z,2.50
2022-08-25T18:33:30.464Z,2.25
2022-08-25T18:36:33.240Z,2.42
2022-08-25T18:39:42.138Z,2.55
2022-08-25T18:42:47.057Z,2.67
2022-08-25T18:45:49.931Z,2.90
2022-08-25T18:48:53.217Z,2.60
2022-08-25T18:51:56.300Z,2.67
2022-08-25T18:54:59.002Z,2.80
2022-08-25T18:58:02.581Z,3.00
2022-08-25T19:01:05.849Z,3.05
2022-08-25T19:04:09.033Z,3.10
2022-08-25T19:07:12.073Z,3.20
2022-08-25T19:10:15.125Z,3.75
2022-08-25T19:13:18.454Z,3.60
2022-08-25T19:16:26.082Z,3.75
2022-08-25T19:19:30.812Z,4.07
2022-08-25T19:22:41.566Z,3.60
2022-08-25T19:25:45.928Z,3.75
2022-08-25T19:28:49.466Z,3.78
2022-08-25T19:31:52.255Z,3.50
2022-08-25T19:34:54.962Z,3.50
2022-08-25T19:37:58.426Z,3.58
2022-08-25T19:41:02.241Z,3.70
2022-08-25T19:44:06.231Z,3.60
2022-08-25T19:47:13.247Z,3.92
2022-08-25T19:50:16.873Z,3.70
2022-08-25T19:53:19.622Z,3.83
2022-08-25T19:56:22.470Z,3.58
2022-08-25T19:59:25.148Z,3.78
2022-08-25T20:02:29.723Z,3.55
2022-08-25T20:05:32.900Z,4.20
2022-08-25T20:08:36.486Z,3.80
2022-08-25T20:11:39.012Z,4.43
2022-08-25T20:14:41.840Z,4.60
2022-08-25T20:17:45.155Z,4.15
2022-08-25T20:20:48.581Z,4.35
2022-08-25T20:23:51.697Z,4.90
2022-08-25T20:26:55.422Z,4.15
2022-08-25T20:29:58.481Z,4.70
2022-08-25T20:33:01.100Z,4.78
2022-08-25T20:36:04.020Z,4.50
2022-08-25T20:39:07.609Z,4.35
2022-08-25T20:42:10.699Z,4.60
2022-08-25T20:45:13.815Z,4.82
2022-08-25T20:48:16.442Z,4.85
2022-08-25T20:51:19.125Z,4.88
2022-08-25T20:54:25.910Z,4.78
2022-08-25T20:57:28.722Z,4.95
2022-08-25T21:00:31.289Z,4.90
2022-08-25T21:03:33.449Z,4.82
2022-08-25T21:06:35.974Z,5.22
2022-08-25T21:09:38.837Z,5.22
2022-08-25T21:12:41.496Z,4.85
2022-08-25T21:15:44.918Z,4.97
2022-08-25T21:18:48.471Z,4.88
2022-08-25T21:21:51.108Z,5.13
2022-08-25T21:24:53.268Z,5.65
2022-08-25T21:27:55.884Z,5.50
2022-08-25T21:31:04.001Z,5.70
2022-08-25T21:34:07.385Z,5.35
2022-08-25T21:37:10.973Z,5.15
2022-08-25T21:40:13.258Z,5.53
2022-08-25T21:43:15.562Z,5.60
2022-08-25T21:46:21.440Z,6.10
2022-08-25T21:49:24.028Z,5.70
2022-08-25T21:52:27.539Z,5.50
2022-08-25T21:55:30.521Z,5.55
2022-08-25T21:58:33.542Z,5.70
2022-08-25T22:01:36.756Z,5.20
2022-08-25T22:04:40.265Z,5.32
2022-08-25T22:07:44.325Z,5.35
2022-08-25T22:10:47.164Z,5.40
2022-08-25T22:13:50.361Z,5.13
2022-08-25T22:16:53.444Z,4.70
2022-08-25T22:19:56.893Z,5.38
2022-08-25T22:22:59.882Z,4.72
2022-08-25T22:26:02.664Z,5.20
2022-08-25T22:29:06.127Z,5.28
2022-08-25T22:32:09.661Z,4.78
2022-08-25T22:35:16.439Z,4.85
2022-08-25T22:38:22.120Z,4.80
2022-08-25T22:41:25.930Z,4.70
2022-08-25T22:44:31.388Z,4.80
2022-08-25T22:47:34.609Z,5.07
2022-08-25T22:50:37.740Z,4.93
2022-08-25T22:53:41.316Z,4.63
2022-08-25T22:56:43.699Z,4.97
2022-08-25T22:59:47.471Z,4.68
2022-08-25T23:02:52.496Z,4.75
2022-08-25T23:05:55.231Z,4.32
2022-08-25T23:08:58.144Z,4.30
2022-08-25T23:12:00.952Z,4.40
2022-08-25T23:15:03.508Z,4.15
2022-08-25T23:18:08.288Z,4.57
2022-08-25T23:21:11.522Z,4.15
2022-08-25T23:24:14.088Z,3.90
2022-08-25T23:27:30.020Z,4.30
2022-08-25T23:30:33.638Z,4.30
2022-08-25T23:33:37.281Z,4.35
2022-08-25T23:36:40.321Z,4.35
2022-08-25T23:39:43.146Z,4.40
2022-08-25T23:42:45.566Z,4.47
2022-08-25T23:45:50.460Z,4.25
2022-08-25T23:48:53.466Z,4.10
2022-08-25T23:51:56.365Z,4.38
2022-08-25T23:54:59.426Z,3.97
2022-08-25T23:58:02.452Z,3.78
